createdAt,value
2018-03-30T00:01:59.798Z,15.38
2018-03-30T00:04:26.847Z,14.55
2018-03-30T00:06:54.612Z,13.95
2018-03-30T00:09:27.470Z,13.10
2018-03-30T00:11:54.296Z,13.93
2018-03-30T00:14:25.612Z,12.65
2018-03-30T00:16:52.523Z,13.43
2018-03-30T00:19:20.101Z,12.40
2018-03-30T00:21:46.815Z,14.00
2018-03-30T00:24:18.030Z,11.77
2018-03-30T00:26:45.004Z,12.40
2018-03-30T00:29:12.188Z,12.30
2018-03-30T00:31:39.055Z,12.68
2018-03-30T00:34:06.074Z,13.75
2018-03-30T00:36:33.448Z,12.40
2018-03-30T00:39:04.013Z,12.25
2018-03-30T00:41:31.495Z,12.50
2018-03-30T00:43:58.226Z,13.48
2018-03-30T00:46:33.012Z,13.52
2018-03-30T00:48:59.794Z,13.60
2018-03-30T00:51:30.983Z,12.98
2018-03-30T00:53:57.748Z,12.18
2018-03-30T00:56:28.627Z,13.80
2018-03-30T00:59:03.638Z,14.10
2018-03-30T01:01:31.330Z,13.00
2018-03-30T01:03:59.498Z,14.40
2018-03-30T01:06:27.165Z,12.98
2018-03-30T01:08:55.453Z,13.80
2018-03-30T01:11:26.688Z,14.25
2018-03-30T01:13:53.629Z,13.48
2018-03-30T01:16:22.022Z,13.88
2018-03-30T01:18:48.923Z,14.95
2018-03-30T01:21:16.542Z,15.18
2018-03-30T01:23:48.025Z,13.95
2018-03-30T01:26:14.845Z,13.93
2018-03-30T01:28:41.593Z,14.27
2018-03-30T01:31:08.598Z,14.10
2018-03-30T01:33:36.014Z,13.90
2018-03-30T01:36:07.040Z,13.35
2018-03-30T01:38:34.779Z,13.43
2018-03-30T01:41:02.937Z,12.23
2018-03-30T01:43:33.433Z,13.40
2018-03-30T01:46:03.003Z,13.62
2018-03-30T01:48:34.199Z,11.45
2018-03-30T01:51:06.262Z,11.63
2018-03-30T01:53:33.603Z,12.63
2018-03-30T01:56:05.890Z,12.73
2018-03-30T01:58:36.969Z,12.02
2018-03-30T02:01:03.819Z,12.95
2018-03-30T02:03:33.150Z,11.55
2018-03-30T02:06:00.011Z,11.73
2018-03-30T02:08:32.562Z,11.73
2018-03-30T02:10:59.887Z,11.00
2018-03-30T02:13:27.321Z,11.90
2018-03-30T02:16:00.919Z,11.90
2018-03-30T02:18:28.330Z,11.55
2018-03-30T02:20:55.471Z,11.30
2018-03-30T02:23:22.316Z,11.10
2018-03-30T02:25:49.046Z,11.10
2018-03-30T02:28:15.782Z,11.82
2018-03-30T02:30:42.687Z,12.37
2018-03-30T02:33:15.674Z,12.13
2018-03-30T02:35:42.515Z,11.35
2018-03-30T02:38:09.793Z,11.77
2018-03-30T02:40:36.518Z,12.50
2018-03-30T02:43:03.477Z,11.02
2018-03-30T02:45:30.314Z,11.80
2018-03-30T02:48:01.316Z,11.18
2018-03-30T02:50:28.403Z,11.38
2018-03-30T02:52:56.719Z,11.82
2018-03-30T02:55:23.483Z,10.13
2018-03-30T02:57:54.518Z,13.02
2018-03-30T03:00:21.324Z,11.77
2018-03-30T03:02:48.894Z,10.80
2018-03-30T03:05:16.775Z,10.68
2018-03-30T03:07:44.162Z,10.80
2018-03-30T03:10:12.890Z,11.50
2018-03-30T03:12:39.894Z,10.93
2018-03-30T03:15:07.562Z,12.20
2018-03-30T03:17:40.332Z,10.40
2018-03-30T03:20:07.223Z,10.90
2018-03-30T03:22:40.278Z,10.90
2018-03-30T03:25:11.531Z,10.93
2018-03-30T03:27:38.386Z,10.57
2018-03-30T03:30:05.701Z,10.00
2018-03-30T03:32:33.321Z,12.23
2018-03-30T03:35:00.198Z,11.90
2018-03-30T03:37:45.346Z,10.73
2018-03-30T03:40:15.742Z,10.85
2018-03-30T03:42:46.776Z,10.68
2018-03-30T03:45:13.602Z,9.25
2018-03-30T03:47:40.356Z,11.85
2018-03-30T03:50:07.846Z,10.63
2018-03-30T03:52:34.661Z,11.50
2018-03-30T03:55:03.539Z,11.15
2018-03-30T03:57:31.949Z,11.30
2018-03-30T04:00:00.030Z,10.40
2018-03-30T04:02:26.827Z,11.27
2018-03-30T04:04:53.544Z,10.93
2018-03-30T04:07:21.229Z,11.10
2018-03-30T04:09:48.038Z,11.10
2018-03-30T04:12:16.461Z,10.98
2018-03-30T04:14:43.422Z,10.85
2018-03-30T04:17:10.609Z,10.52
2018-03-30T04:19:37.446Z,10.80
2018-03-30T04:22:05.529Z,9.35
2018-03-30T04:24:32.488Z,9.80
2018-03-30T04:26:59.958Z,10.82
2018-03-30T04:29:26.874Z,9.85
2018-03-30T04:31:54.075Z,9.50
2018-03-30T04:34:21.010Z,9.00
2018-03-30T04:36:52.075Z,9.82
2018-03-30T04:39:18.930Z,10.20
2018-03-30T04:41:45.649Z,9.52
2018-03-30T04:44:13.655Z,9.32
2018-03-30T04:46:41.955Z,9.20
2018-03-30T04:49:08.799Z,8.75
2018-03-30T04:51:36.184Z,10.50
2018-03-30T04:54:03.539Z,10.02
2018-03-30T04:56:30.280Z,10.82
2018-03-30T04:58:58.286Z,8.77
2018-03-30T05:01:29.530Z,9.07
2018-03-30T05:03:57.449Z,9.48
2018-03-30T05:06:29.120Z,9.25
2018-03-30T05:08:56.104Z,8.88
2018-03-30T05:11:22.890Z,9.23
2018-03-30T05:13:50.780Z,8.40
2018-03-30T05:16:20.198Z,7.72
2018-03-30T05:18:47.075Z,8.20
2018-03-30T05:21:13.936Z,8.57
2018-03-30T05:23:44.722Z,7.95
2018-03-30T05:26:11.542Z,8.93
2018-03-30T05:28:38.737Z,8.80
2018-03-30T05:31:05.628Z,8.70
2018-03-30T05:33:32.612Z,8.90
2018-03-30T05:35:59.613Z,7.47
2018-03-30T05:38:30.834Z,8.60
2018-03-30T05:40:57.659Z,8.65
2018-03-30T05:43:24.834Z,10.73
2018-03-30T05:45:51.747Z,9.65
2018-03-30T05:48:20.313Z,10.20
2018-03-30T05:50:48.024Z,10.98
2018-03-30T05:53:15.423Z,10.75
2018-03-30T05:55:43.242Z,9.30
2018-03-30T05:58:11.121Z,9.70
2018-03-30T06:00:38.018Z,10.25
2018-03-30T06:03:04.862Z,8.77
2018-03-30T06:05:31.791Z,9.52
2018-03-30T06:07:58.701Z,9.20
2018-03-30T06:10:25.560Z,11.98
2018-03-30T06:12:52.374Z,13.23
2018-03-30T06:15:19.132Z,10.73
2018-03-30T06:17:45.960Z,11.98
2018-03-30T06:20:14.725Z,13.77
2018-03-30T06:22:41.652Z,11.45
2018-03-30T06:25:08.499Z,10.07
2018-03-30T06:27:36.159Z,10.20
2018-03-30T06:30:03.872Z,10.48
2018-03-30T06:32:30.752Z,12.10
2018-03-30T06:34:58.147Z,10.05
2018-03-30T06:37:25.948Z,9.45
2018-03-30T06:39:52.862Z,10.15
2018-03-30T06:42:25.952Z,10.43
2018-03-30T06:44:53.288Z,11.48
2018-03-30T06:47:20.149Z,11.05
2018-03-30T06:49:47.849Z,10.10
2018-03-30T06:52:14.632Z,9.85
2018-03-30T06:54:41.411Z,10.77
2018-03-30T06:57:08.182Z,10.82
2018-03-30T06:59:34.946Z,10.77
2018-03-30T07:02:01.702Z,10.15
2018-03-30T07:04:28.424Z,10.75
2018-03-30T07:06:55.179Z,10.23
2018-03-30T07:09:21.859Z,11.02
2018-03-30T07:11:48.616Z,10.15
2018-03-30T07:14:15.349Z,10.23
2018-03-30T07:16:42.189Z,10.68
2018-03-30T07:19:09.118Z,11.20
2018-03-30T07:21:36.569Z,10.05
2018-03-30T07:24:03.309Z,10.88
2018-03-30T07:26:29.993Z,12.45
2018-03-30T07:28:56.776Z,11.60
2018-03-30T07:31:23.531Z,11.02
2018-03-30T07:33:50.801Z,11.00
2018-03-30T07:36:17.551Z,10.82
2018-03-30T07:38:44.381Z,10.68
2018-03-30T07:41:11.540Z,10.80
2018-03-30T07:43:39.010Z,11.38
2018-03-30T07:46:06.318Z,10.73
2018-03-30T07:48:33.595Z,10.32
2018-03-30T07:51:00.442Z,11.00
2018-03-30T07:53:27.198Z,10.95
2018-03-30T07:55:54.053Z,11.30
2018-03-30T07:58:20.963Z,10.20
2018-03-30T08:00:47.712Z,10.90
2018-03-30T08:03:14.504Z,10.60
2018-03-30T08:05:41.254Z,10.20
2018-03-30T08:08:08.043Z,10.98
2018-03-30T08:10:35.011Z,11.52
2018-03-30T08:13:01.708Z,11.85
2018-03-30T08:15:28.446Z,9.95
2018-03-30T08:17:55.236Z,11.77
2018-03-30T08:20:21.975Z,11.82
2018-03-30T08:22:48.808Z,10.73
2018-03-30T08:25:15.546Z,11.75
2018-03-30T08:27:42.277Z,11.30
2018-03-30T08:30:09.030Z,12.05
2018-03-30T08:32:35.808Z,11.93
2018-03-30T08:35:03.148Z,11.77
2018-03-30T08:37:29.917Z,10.73
2018-03-30T08:39:56.624Z,11.57
2018-03-30T08:42:23.468Z,12.85
2018-03-30T08:44:50.390Z,13.18
2018-03-30T08:47:17.320Z,11.30
2018-03-30T08:49:44.128Z,11.90
2018-03-30T08:52:11.206Z,12.30
2018-03-30T08:54:38.019Z,11.52
2018-03-30T08:57:05.001Z,11.80
2018-03-30T08:59:31.730Z,10.93
2018-03-30T09:01:58.514Z,11.60
2018-03-30T09:04:26.449Z,11.88
2018-03-30T09:06:53.443Z,11.25
2018-03-30T09:09:20.159Z,11.07
2018-03-30T09:11:46.966Z,10.50
2018-03-30T09:14:14.782Z,10.88
2018-03-30T09:16:45.941Z,10.38
2018-03-30T09:19:13.305Z,10.20
2018-03-30T09:21:44.365Z,10.85
2018-03-30T09:24:11.116Z,8.80
2018-03-30T09:26:38.232Z,9.10
2018-03-30T09:29:05.134Z,9.40
2018-03-30T09:31:32.009Z,8.60
2018-03-30T09:33:59.000Z,9.52
2018-03-30T09:36:26.069Z,9.80
2018-03-30T09:38:52.880Z,7.00
2018-03-30T09:41:19.675Z,7.10
2018-03-30T09:43:46.529Z,5.93
2018-03-30T09:46:13.923Z,6.28
2018-03-30T09:48:41.033Z,5.57
2018-03-30T09:51:07.996Z,6.22
2018-03-30T09:53:34.968Z,6.03
2018-03-30T09:56:01.871Z,5.22
2018-03-30T09:58:28.878Z,5.20
2018-03-30T10:01:12.059Z,4.10
2018-03-30T10:03:40.065Z,3.75
2018-03-30T10:06:06.881Z,4.00
2018-03-30T10:08:34.691Z,3.35
2018-03-30T10:11:01.584Z,3.10
2018-03-30T10:13:28.594Z,2.78
2018-03-30T10:15:55.691Z,3.72
2018-03-30T10:18:22.560Z,3.15
2018-03-30T10:20:49.809Z,4.75
2018-03-30T10:23:17.507Z,3.12
2018-03-30T10:25:44.394Z,3.92
2018-03-30T10:28:11.164Z,3.85
2018-03-30T10:30:42.212Z,3.05
2018-03-30T10:33:08.965Z,3.10
2018-03-30T10:35:36.134Z,3.90
2018-03-30T10:38:02.981Z,3.40
2018-03-30T10:40:29.898Z,3.08
2018-03-30T10:42:57.015Z,4.05
2018-03-30T10:45:24.829Z,3.53
2018-03-30T10:47:51.792Z,3.50
2018-03-30T10:50:18.754Z,3.97
2018-03-30T10:52:50.210Z,3.50
2018-03-30T10:55:17.497Z,4.28
2018-03-30T10:57:44.386Z,4.12
2018-03-30T11:00:11.873Z,3.53
2018-03-30T11:02:38.980Z,3.78
2018-03-30T11:05:07.231Z,3.40
2018-03-30T11:07:34.344Z,3.60
2018-03-30T11:10:02.709Z,5.32
2018-03-30T11:12:29.536Z,4.80
2018-03-30T11:14:56.535Z,5.45
2018-03-30T11:17:23.438Z,6.15
2018-03-30T11:19:50.904Z,3.70
2018-03-30T11:22:17.836Z,4.15
2018-03-30T11:24:44.810Z,3.70
2018-03-30T11:27:11.711Z,4.07
2018-03-30T11:29:38.661Z,5.15
2018-03-30T11:32:05.853Z,5.95
2018-03-30T11:34:32.846Z,4.68
2018-03-30T11:36:59.690Z,5.50
2018-03-30T11:39:26.453Z,5.15
2018-03-30T11:41:53.165Z,5.70
2018-03-30T11:44:21.454Z,4.53
2018-03-30T11:46:48.556Z,5.10
2018-03-30T11:49:15.310Z,5.60
2018-03-30T11:51:42.437Z,4.87
2018-03-30T11:54:09.920Z,4.72
2018-03-30T11:56:36.911Z,4.18
2018-03-30T11:59:03.725Z,4.35
2018-03-30T12:01:30.654Z,4.97
2018-03-30T12:03:57.422Z,6.32
2018-03-30T12:06:28.180Z,5.95
2018-03-30T12:08:54.870Z,5.62
2018-03-30T12:11:21.608Z,6.57
2018-03-30T12:13:48.243Z,5.35
2018-03-30T12:16:14.927Z,5.95
2018-03-30T12:18:41.713Z,5.35
2018-03-30T12:21:08.347Z,6.32
2018-03-30T12:23:35.618Z,6.07
2018-03-30T12:26:02.241Z,6.07
2018-03-30T12:28:28.879Z,6.18
2018-03-30T12:30:55.500Z,4.62
2018-03-30T12:33:22.141Z,5.32
2018-03-30T12:35:48.935Z,5.75
2018-03-30T12:38:15.712Z,5.75
2018-03-30T12:40:43.376Z,5.10
2018-03-30T12:43:10.080Z,5.15
2018-03-30T12:45:36.757Z,6.15
2018-03-30T12:48:03.530Z,5.03
2018-03-30T12:50:30.244Z,4.80
2018-03-30T12:52:57.001Z,4.75
2018-03-30T12:55:23.652Z,4.80
2018-03-30T12:57:50.310Z,4.70
2018-03-30T13:00:16.968Z,4.78
2018-03-30T13:02:44.635Z,5.00
2018-03-30T13:05:11.496Z,5.80
2018-03-30T13:07:38.421Z,5.68
2018-03-30T13:10:05.166Z,5.75
2018-03-30T13:12:32.520Z,5.40
2018-03-30T13:14:59.199Z,4.40
2018-03-30T13:17:26.061Z,5.10
2018-03-30T13:19:53.013Z,5.60
2018-03-30T13:22:19.632Z,5.53
2018-03-30T13:24:46.310Z,5.37
2018-03-30T13:27:12.978Z,5.47
2018-03-30T13:29:39.650Z,5.60
2018-03-30T13:32:10.564Z,5.72
2018-03-30T13:34:37.325Z,5.32
2018-03-30T13:37:03.875Z,5.62
2018-03-30T13:39:30.568Z,6.35
2018-03-30T13:41:57.189Z,4.95
2018-03-30T13:44:23.821Z,5.57
2018-03-30T13:46:51.148Z,5.75
2018-03-30T13:49:17.765Z,5.55
2018-03-30T13:51:50.344Z,6.10
2018-03-30T13:54:27.213Z,6.28
2018-03-30T13:56:53.957Z,6.43
2018-03-30T13:59:22.464Z,5.62
2018-03-30T14:01:50.839Z,5.50
2018-03-30T14:04:18.295Z,6.15
2018-03-30T14:06:53.924Z,5.68
2018-03-30T14:09:20.582Z,5.78
2018-03-30T14:11:49.168Z,5.70
2018-03-30T14:14:15.778Z,5.32
2018-03-30T14:16:47.213Z,5.20
2018-03-30T14:19:17.676Z,5.30
2018-03-30T14:21:44.339Z,6.03
2018-03-30T14:24:10.983Z,5.25
2018-03-30T14:26:37.612Z,5.75
2018-03-30T14:29:07.039Z,5.70
2018-03-30T14:31:37.607Z,5.47
2018-03-30T14:34:04.241Z,6.65
2018-03-30T14:36:34.772Z,5.12
2018-03-30T14:39:07.280Z,5.15
2018-03-30T14:41:33.908Z,6.03
2018-03-30T14:44:00.535Z,5.78
2018-03-30T14:46:30.500Z,6.28
2018-03-30T14:48:58.917Z,5.18
2018-03-30T14:51:26.163Z,5.43
2018-03-30T14:53:57.688Z,5.68
2018-03-30T14:56:30.016Z,5.47
2018-03-30T14:58:56.666Z,5.55
2018-03-30T15:01:23.292Z,5.30
2018-03-30T15:03:49.912Z,5.70
2018-03-30T15:06:27.369Z,6.37
2018-03-30T15:08:57.014Z,6.85
2018-03-30T15:11:26.564Z,7.57
2018-03-30T15:13:54.973Z,6.50
2018-03-30T15:16:37.342Z,6.57
2018-03-30T15:19:05.813Z,6.07
2018-03-30T15:21:37.331Z,6.78
2018-03-30T15:24:19.696Z,6.70
2018-03-30T15:26:56.276Z,6.40
2018-03-30T15:29:25.684Z,7.95
2018-03-30T15:31:53.143Z,6.60
2018-03-30T15:34:30.567Z,7.68
2018-03-30T15:36:58.017Z,7.90
2018-03-30T15:39:25.470Z,8.60
2018-03-30T15:41:54.900Z,7.32
2018-03-30T15:44:21.583Z,8.00
2018-03-30T15:46:48.238Z,7.32
2018-03-30T15:49:15.834Z,7.28
2018-03-30T15:51:45.288Z,7.20
2018-03-30T15:54:11.696Z,7.40
2018-03-30T15:56:38.378Z,8.45
2018-03-30T15:59:05.025Z,8.38
2018-03-30T16:01:31.772Z,7.85
2018-03-30T16:03:58.429Z,7.47
2018-03-30T16:06:25.069Z,7.62
2018-03-30T16:08:51.734Z,7.32
2018-03-30T16:11:19.288Z,7.60
2018-03-30T16:13:45.977Z,6.87
2018-03-30T16:16:12.649Z,7.00
2018-03-30T16:18:45.116Z,7.03
2018-03-30T16:21:11.504Z,6.57
2018-03-30T16:23:37.936Z,5.82
2018-03-30T16:26:04.336Z,6.80
2018-03-30T16:28:30.785Z,6.35
2018-03-30T16:30:57.184Z,5.72
2018-03-30T16:33:23.639Z,6.72
2018-03-30T16:35:50.076Z,7.00
2018-03-30T16:38:16.506Z,5.85
2018-03-30T16:40:42.912Z,6.15
2018-03-30T16:43:09.397Z,6.03
2018-03-30T16:45:35.793Z,6.75
2018-03-30T16:48:02.288Z,6.90
2018-03-30T16:50:28.796Z,6.10
2018-03-30T16:52:55.834Z,5.45
2018-03-30T16:55:22.232Z,6.53
2018-03-30T16:57:48.699Z,5.25
2018-03-30T17:00:15.184Z,5.57
2018-03-30T17:02:41.622Z,6.62
2018-03-30T17:05:08.059Z,5.62
2018-03-30T17:07:34.494Z,5.15
2018-03-30T17:10:00.924Z,5.30
2018-03-30T17:12:27.375Z,6.50
2018-03-30T17:14:53.808Z,5.50
2018-03-30T17:17:20.299Z,5.18
2018-03-30T17:19:46.896Z,4.90
2018-03-30T17:22:13.298Z,5.62
2018-03-30T17:24:39.750Z,4.87
2018-03-30T17:27:06.164Z,4.50
2018-03-30T17:29:32.680Z,5.10
2018-03-30T17:31:59.110Z,4.45
2018-03-30T17:34:25.672Z,4.90
2018-03-30T17:36:52.087Z,5.60
2018-03-30T17:39:18.489Z,4.43
2018-03-30T17:41:45.462Z,4.85
2018-03-30T17:44:11.870Z,5.68
2018-03-30T17:46:38.297Z,5.18
2018-03-30T17:49:04.745Z,4.45
2018-03-30T17:51:31.168Z,4.68
2018-03-30T17:53:57.594Z,4.62
2018-03-30T17:56:24.937Z,5.05
2018-03-30T17:58:51.384Z,5.18
2018-03-30T18:01:18.680Z,5.78
2018-03-30T18:03:45.094Z,4.60
2018-03-30T18:06:11.543Z,4.68
2018-03-30T18:08:37.946Z,4.43
2018-03-30T18:11:04.407Z,5.82
2018-03-30T18:13:31.662Z,4.47
2018-03-30T18:15:58.089Z,5.18
2018-03-30T18:18:24.528Z,5.60
2018-03-30T18:20:50.976Z,4.37
2018-03-30T18:23:17.421Z,5.45
2018-03-30T18:25:43.835Z,5.47
2018-03-30T18:28:10.259Z,5.45
2018-03-30T18:30:37.478Z,5.70
2018-03-30T18:33:03.923Z,5.78
2018-03-30T18:35:30.346Z,5.55
2018-03-30T18:37:56.812Z,5.22
2018-03-30T18:40:23.237Z,6.68
2018-03-30T18:42:49.756Z,6.43
2018-03-30T18:45:16.189Z,6.32
2018-03-30T18:47:42.647Z,6.80
2018-03-30T18:50:09.532Z,6.72
2018-03-30T18:52:35.959Z,7.15
2018-03-30T18:55:02.401Z,6.60
2018-03-30T18:57:28.802Z,6.90
2018-03-30T18:59:55.549Z,7.40
2018-03-30T19:02:22.191Z,7.75
2018-03-30T19:04:49.077Z,6.70
2018-03-30T19:07:15.943Z,6.30
2018-03-30T19:09:42.875Z,6.47
2018-03-30T19:12:09.678Z,6.95
2018-03-30T19:14:36.433Z,6.90
2018-03-30T19:17:03.374Z,6.78
2018-03-30T19:19:30.208Z,7.15
2018-03-30T19:21:56.928Z,6.93
2018-03-30T19:24:23.634Z,7.12
2018-03-30T19:26:50.544Z,7.12
2018-03-30T19:29:17.061Z,7.10
2018-03-30T19:31:43.834Z,7.75
2018-03-30T19:34:10.483Z,7.53
2018-03-30T19:36:37.443Z,7.68
2018-03-30T19:39:04.266Z,7.82
2018-03-30T19:41:31.259Z,7.55
2018-03-30T19:43:58.111Z,7.40
2018-03-30T19:46:24.936Z,7.95
2018-03-30T19:48:52.399Z,8.50
2018-03-30T19:51:19.822Z,8.90
2018-03-30T19:53:46.529Z,8.52
2018-03-30T19:56:13.118Z,8.60
2018-03-30T19:58:39.717Z,7.95
2018-03-30T20:01:06.907Z,8.85
2018-03-30T20:03:33.814Z,7.68
2018-03-30T20:06:00.439Z,8.45
2018-03-30T20:08:27.346Z,10.10
2018-03-30T20:10:54.199Z,8.82
2018-03-30T20:13:21.172Z,9.73
2018-03-30T20:15:47.923Z,9.60
2018-03-30T20:18:14.785Z,9.80
2018-03-30T20:20:43.098Z,9.65
2018-03-30T20:23:09.584Z,9.80
2018-03-30T20:25:36.753Z,9.88
2018-03-30T20:28:03.694Z,10.13
2018-03-30T20:30:30.604Z,10.52
2018-03-30T20:32:57.190Z,11.12
2018-03-30T20:35:24.071Z,11.10
2018-03-30T20:37:50.811Z,10.20
2018-03-30T20:40:17.392Z,11.52
2018-03-30T20:42:43.913Z,12.10
2018-03-30T20:45:10.671Z,11.35
2018-03-30T20:47:37.185Z,11.30
2018-03-30T20:50:03.802Z,10.52
2018-03-30T20:52:30.378Z,12.02
2018-03-30T20:54:57.093Z,11.70
2018-03-30T20:57:23.946Z,12.20
2018-03-30T20:59:50.770Z,12.32
2018-03-30T21:02:17.374Z,12.98
2018-03-30T21:04:44.077Z,12.13
2018-03-30T21:07:10.989Z,12.88
2018-03-30T21:09:37.961Z,11.90
2018-03-30T21:12:04.713Z,11.32
2018-03-30T21:14:31.426Z,11.52
2018-03-30T21:16:58.107Z,11.95
2018-03-30T21:19:25.008Z,11.95
2018-03-30T21:21:51.680Z,11.32
2018-03-30T21:24:18.363Z,11.80
2018-03-30T21:26:45.075Z,12.55
2018-03-30T21:29:11.805Z,11.25
2018-03-30T21:31:38.782Z,12.68
2018-03-30T21:34:05.544Z,13.15
2018-03-30T21:36:32.256Z,12.25
2018-03-30T21:38:59.015Z,12.30
2018-03-30T21:41:26.404Z,13.77
2018-03-30T21:43:52.799Z,13.00
2018-03-30T21:46:19.251Z,12.77
2018-03-30T21:48:45.661Z,13.23
2018-03-30T21:51:12.104Z,14.00
2018-03-30T21:53:38.526Z,11.12
2018-03-30T21:56:04.940Z,13.75
2018-03-30T21:58:31.381Z,12.48
2018-03-30T22:00:57.804Z,12.23
2018-03-30T22:03:24.825Z,12.85
2018-03-30T22:05:51.239Z,13.50
2018-03-30T22:08:17.785Z,15.52
2018-03-30T22:10:44.167Z,13.80
2018-03-30T22:13:10.583Z,15.75
2018-03-30T22:15:36.996Z,16.58
2018-03-30T22:18:03.416Z,14.95
2018-03-30T22:20:30.554Z,16.35
2018-03-30T22:22:56.959Z,15.73
2018-03-30T22:25:23.365Z,15.95
2018-03-30T22:27:49.867Z,16.85
2018-03-30T22:30:16.278Z,16.42
2018-03-30T22:32:42.696Z,15.98
2018-03-30T22:35:09.110Z,17.15
2018-03-30T22:37:36.182Z,15.45
2018-03-30T22:40:02.588Z,16.33
2018-03-30T22:42:28.971Z,17.75
2018-03-30T22:44:55.389Z,17.02
2018-03-30T22:47:21.852Z,18.55
2018-03-30T22:49:48.300Z,18.70
2018-03-30T22:52:14.709Z,19.50
2018-03-30T22:54:41.124Z,17.62
2018-03-30T22:57:07.551Z,15.52
2018-03-30T22:59:33.965Z,16.90
2018-03-30T23:02:01.400Z,15.52
2018-03-30T23:04:27.820Z,14.30
2018-03-30T23:06:54.876Z,14.55
2018-03-30T23:09:21.297Z,13.15
2018-03-30T23:11:47.717Z,11.98
2018-03-30T23:14:14.128Z,10.57
2018-03-30T23:16:40.615Z,10.52
2018-03-30T23:19:07.032Z,9.68
2018-03-30T23:21:33.519Z,10.50
2018-03-30T23:23:59.927Z,9.85
2018-03-30T23:26:26.335Z,8.63
2018-03-30T23:28:52.723Z,8.40
2018-03-30T23:31:19.150Z,7.75
2018-03-30T23:33:45.560Z,8.60
2018-03-30T23:36:12.004Z,7.90
2018-03-30T23:38:38.663Z,7.62
2018-03-30T23:41:05.068Z,7.22
2018-03-30T23:43:31.503Z,7.95
2018-03-30T23:45:57.916Z,6.47
2018-03-30T23:48:24.330Z,6.75
2018-03-30T23:50:50.727Z,6.78
2018-03-30T23:53:17.150Z,6.57
2018-03-30T23:55:43.526Z,6.72
2018-03-30T23:58:09.945Z,6.95
